createdAt,value
2022-10-19T00:02:19.850Z,13.02
2022-10-19T00:04:46.441Z,13.93
2022-10-19T00:07:13.064Z,10.52
2022-10-19T00:09:39.847Z,11.38
2022-10-19T00:12:06.394Z,11.05
2022-10-19T00:14:33.045Z,6.32
2022-10-19T00:16:59.597Z,12.45
2022-10-19T00:19:27.714Z,14.73
2022-10-19T00:21:54.623Z,13.57
2022-10-19T00:24:21.574Z,10.57
2022-10-19T00:26:48.257Z,8.57
2022-10-19T00:29:15.446Z,13.48
2022-10-19T00:31:42.587Z,14.55
2022-10-19T00:34:09.712Z,10.55
2022-10-19T00:36:39.449Z,14.57
2022-10-19T00:39:08.657Z,10.70
2022-10-19T00:41:36.526Z,19.05
2022-10-19T00:44:13.820Z,14.23
2022-10-19T00:46:42.986Z,13.18
2022-10-19T00:49:15.817Z,12.40
2022-10-19T00:51:45.205Z,10.98
2022-10-19T00:54:12.322Z,11.13
2022-10-19T00:56:42.211Z,11.25
2022-10-19T00:59:10.330Z,13.27
2022-10-19T01:01:37.236Z,16.73
2022-10-19T01:04:04.918Z,6.35
2022-10-19T01:06:32.165Z,15.48
2022-10-19T01:08:58.827Z,8.60
2022-10-19T01:11:31.493Z,11.00
2022-10-19T01:14:22.862Z,16.80
2022-10-19T01:16:58.061Z,8.93
2022-10-19T01:19:50.509Z,9.07
2022-10-19T01:22:46.253Z,10.73
2022-10-19T01:25:18.560Z,15.57
2022-10-19T01:28:09.086Z,9.48
2022-10-19T01:30:54.507Z,9.63
2022-10-19T01:33:46.009Z,10.30
2022-10-19T01:36:31.180Z,11.00
2022-10-19T01:39:19.119Z,8.25
2022-10-19T01:41:54.869Z,7.68
2022-10-19T01:45:00.744Z,5.97
2022-10-19T01:47:34.207Z,6.18
2022-10-19T01:50:14.782Z,9.90
2022-10-19T01:52:43.058Z,5.05
2022-10-19T01:55:13.445Z,18.15
2022-10-19T01:57:45.902Z,8.10
2022-10-19T02:00:15.903Z,9.05
2022-10-19T02:02:46.743Z,7.15
2022-10-19T02:05:14.202Z,6.95
2022-10-19T02:07:44.535Z,9.13
2022-10-19T02:10:11.253Z,15.07
2022-10-19T02:12:38.333Z,6.60
2022-10-19T02:15:11.161Z,7.45
2022-10-19T02:17:44.093Z,10.85
2022-10-19T02:20:10.736Z,9.45
2022-10-19T02:22:37.485Z,8.63
2022-10-19T02:25:05.013Z,13.75
2022-10-19T02:27:31.596Z,19.27
2022-10-19T02:29:58.174Z,13.38
2022-10-19T02:32:25.968Z,13.70
2022-10-19T02:34:52.812Z,12.48
2022-10-19T02:37:22.057Z,10.63
2022-10-19T02:39:50.024Z,11.35
2022-10-19T02:42:22.604Z,6.65
2022-10-19T02:44:58.682Z,8.85
2022-10-19T02:47:31.173Z,11.63
2022-10-19T02:49:57.835Z,12.52
2022-10-19T02:52:24.346Z,13.48
2022-10-19T02:54:50.861Z,12.05
2022-10-19T02:57:23.920Z,10.57
2022-10-19T02:59:51.430Z,8.70
2022-10-19T03:02:19.599Z,16.13
2022-10-19T03:07:15.999Z,9.82
2022-10-19T03:09:43.661Z,15.32
2022-10-19T03:12:11.601Z,8.88
2022-10-19T03:14:38.174Z,9.65
2022-10-19T03:17:05.315Z,13.75
2022-10-19T03:19:32.315Z,5.78
2022-10-19T03:21:58.851Z,9.25
2022-10-19T03:24:25.702Z,8.00
2022-10-19T03:26:52.329Z,9.38
2022-10-19T03:29:19.036Z,4.47
2022-10-19T03:31:45.635Z,6.97
2022-10-19T03:34:12.165Z,3.05
2022-10-19T03:36:40.740Z,7.32
2022-10-19T03:39:11.476Z,4.00
2022-10-19T03:41:38.689Z,7.70
2022-10-19T03:44:07.385Z,6.20
2022-10-19T03:46:35.528Z,6.82
2022-10-19T03:49:02.407Z,6.50
2022-10-19T03:51:30.909Z,5.70
2022-10-19T03:54:00.085Z,6.60
2022-10-19T03:56:28.765Z,4.60
2022-10-19T03:58:56.869Z,7.65
2022-10-19T04:01:32.442Z,6.75
2022-10-19T04:04:01.344Z,10.38
2022-10-19T04:06:30.780Z,7.60
2022-10-19T04:08:57.907Z,12.25
2022-10-19T04:11:26.463Z,10.68
2022-10-19T04:13:54.517Z,7.80
2022-10-19T04:16:22.840Z,10.88
2022-10-19T04:18:49.505Z,11.52
2022-10-19T04:21:24.977Z,8.55
2022-10-19T04:23:53.327Z,10.23
2022-10-19T04:26:20.732Z,5.80
2022-10-19T04:28:47.421Z,8.40
2022-10-19T04:31:14.163Z,9.73
2022-10-19T04:33:41.823Z,6.18
2022-10-19T04:36:10.802Z,5.07
2022-10-19T04:38:37.864Z,9.35
2022-10-19T04:41:12.622Z,6.95
2022-10-19T04:43:39.590Z,6.40
2022-10-19T04:46:14.100Z,5.03
2022-10-19T04:48:41.522Z,4.20
2022-10-19T04:51:08.878Z,8.10
2022-10-19T04:53:38.084Z,5.85
2022-10-19T04:56:09.998Z,5.30
2022-10-19T04:58:36.538Z,6.10
2022-10-19T05:01:18.096Z,8.13
2022-10-19T05:03:45.345Z,7.50
2022-10-19T05:06:13.121Z,5.53
2022-10-19T05:08:40.140Z,6.22
2022-10-19T05:11:14.712Z,6.00
2022-10-19T05:13:42.507Z,10.95
2022-10-19T05:16:12.567Z,10.52
2022-10-19T05:18:39.485Z,7.35
2022-10-19T05:21:11.755Z,9.15
2022-10-19T05:23:39.432Z,11.00
2022-10-19T05:26:08.743Z,11.70
2022-10-19T05:28:36.519Z,8.35
2022-10-19T05:31:14.755Z,19.23
2022-10-19T05:33:42.276Z,100.57
2022-10-19T05:36:25.571Z,90.68
2022-10-19T05:38:53.220Z,82.32
2022-10-19T05:41:20.542Z,62.42
2022-10-19T05:43:53.698Z,64.25
2022-10-19T05:46:20.273Z,70.22
2022-10-19T05:48:47.629Z,68.95
2022-10-19T05:51:17.701Z,71.63
2022-10-19T05:53:44.614Z,49.50
2022-10-19T05:56:20.116Z,31.67
2022-10-19T05:58:47.320Z,22.08
2022-10-19T06:01:15.490Z,19.35
2022-10-19T06:03:42.094Z,10.77
2022-10-19T06:06:09.581Z,22.35
2022-10-19T06:08:37.235Z,18.98
2022-10-19T06:11:18.481Z,13.70
2022-10-19T06:13:46.795Z,13.63
2022-10-19T06:16:18.247Z,17.08
2022-10-19T06:18:44.975Z,15.98
2022-10-19T06:21:14.781Z,15.50
2022-10-19T06:26:11.859Z,11.32
2022-10-19T06:28:40.206Z,15.85
2022-10-19T06:31:09.258Z,10.20
2022-10-19T06:33:40.470Z,7.68
2022-10-19T06:36:16.350Z,8.85
2022-10-19T06:38:43.203Z,19.52
2022-10-19T06:41:11.711Z,10.27
2022-10-19T06:43:38.877Z,11.40
2022-10-19T06:46:07.732Z,9.35
2022-10-19T06:48:34.736Z,8.55
2022-10-19T06:51:06.291Z,9.55
2022-10-19T06:53:34.461Z,11.88
2022-10-19T06:56:03.252Z,14.57
2022-10-19T06:58:30.841Z,6.60
2022-10-19T07:01:01.493Z,8.70
2022-10-19T07:03:29.897Z,7.90
2022-10-19T07:06:01.455Z,6.25
2022-10-19T07:08:30.026Z,8.27
2022-10-19T07:10:59.359Z,11.02
2022-10-19T07:13:27.754Z,9.15
2022-10-19T07:16:17.983Z,9.73
2022-10-19T07:18:50.267Z,16.38
2022-10-19T07:21:17.887Z,11.63
2022-10-19T07:23:47.476Z,7.05
2022-10-19T07:26:15.515Z,11.35
2022-10-19T07:28:46.829Z,5.40
2022-10-19T07:31:17.988Z,9.65
2022-10-19T07:33:45.022Z,5.30
2022-10-19T07:36:13.613Z,9.38
2022-10-19T07:38:40.724Z,17.08
2022-10-19T07:41:12.696Z,47.00
2022-10-19T07:43:40.278Z,30.77
2022-10-19T07:46:11.134Z,18.17
2022-10-19T07:48:37.682Z,16.33
2022-10-19T07:51:06.548Z,13.70
2022-10-19T07:53:36.744Z,68.68
2022-10-19T07:56:09.115Z,142.85
2022-10-19T07:58:36.647Z,99.63
2022-10-19T08:01:06.299Z,97.55
2022-10-19T08:06:21.198Z,58.00
2022-10-19T08:08:49.022Z,55.85
2022-10-19T08:11:20.983Z,19.35
2022-10-19T08:13:48.446Z,13.43
2022-10-19T08:16:28.381Z,12.40
2022-10-19T08:19:00.603Z,11.02
2022-10-19T08:21:28.437Z,14.05
2022-10-19T08:23:55.304Z,7.53
2022-10-19T08:26:22.035Z,16.05
2022-10-19T08:28:48.762Z,8.95
2022-10-19T08:31:21.974Z,14.23
2022-10-19T08:33:51.948Z,8.40
2022-10-19T08:36:19.970Z,13.45
2022-10-19T08:38:48.451Z,6.80
2022-10-19T08:41:34.015Z,10.25
2022-10-19T08:44:12.795Z,12.05
2022-10-19T08:46:54.565Z,14.82
2022-10-19T08:49:25.953Z,16.05
2022-10-19T08:51:59.409Z,15.05
2022-10-19T08:54:37.839Z,12.23
2022-10-19T08:57:25.089Z,10.38
2022-10-19T09:00:10.812Z,9.90
2022-10-19T09:03:13.453Z,8.80
2022-10-19T09:06:20.012Z,19.88
2022-10-19T09:08:47.546Z,12.48
2022-10-19T09:11:17.481Z,8.18
2022-10-19T09:14:04.305Z,8.23
2022-10-19T09:16:33.063Z,17.30
2022-10-19T09:18:59.905Z,12.77
2022-10-19T09:21:46.316Z,17.27
2022-10-19T09:24:54.488Z,12.73
2022-10-19T09:27:30.128Z,7.40
2022-10-19T09:29:58.520Z,11.18
2022-10-19T09:32:33.938Z,10.40
2022-10-19T09:35:03.750Z,9.70
2022-10-19T09:37:34.467Z,10.38
2022-10-19T09:40:01.213Z,10.60
2022-10-19T09:42:36.875Z,8.07
2022-10-19T09:45:17.576Z,19.98
2022-10-19T09:47:48.245Z,10.73
2022-10-19T09:50:23.171Z,11.25
2022-10-19T09:52:53.667Z,8.98
2022-10-19T09:55:28.458Z,8.20
2022-10-19T09:58:14.711Z,10.40
2022-10-19T10:00:47.139Z,6.15
2022-10-19T10:03:24.382Z,10.85
2022-10-19T10:05:51.669Z,11.60
2022-10-19T10:08:21.825Z,10.27
2022-10-19T10:11:00.897Z,10.50
2022-10-19T10:13:28.142Z,9.88
2022-10-19T10:16:01.405Z,9.15
2022-10-19T10:18:29.604Z,9.63
2022-10-19T10:21:11.134Z,14.90
2022-10-19T10:23:38.499Z,5.78
2022-10-19T10:26:16.233Z,10.13
2022-10-19T10:28:50.723Z,9.50
2022-10-19T10:31:29.698Z,14.88
2022-10-19T10:34:10.913Z,12.75
2022-10-19T10:36:53.469Z,9.95
2022-10-19T10:39:20.366Z,9.77
2022-10-19T10:41:49.017Z,11.18
2022-10-19T10:44:20.740Z,11.27
2022-10-19T10:46:55.153Z,10.20
2022-10-19T10:49:28.327Z,9.65
2022-10-19T10:52:00.932Z,12.32
2022-10-19T10:54:32.577Z,10.02
2022-10-19T10:57:44.469Z,10.05
2022-10-19T11:00:20.596Z,11.30
2022-10-19T11:02:58.436Z,9.02
2022-10-19T11:05:40.046Z,9.93
2022-10-19T11:08:12.285Z,7.88
2022-10-19T11:10:49.705Z,9.93
2022-10-19T11:13:24.125Z,6.35
2022-10-19T11:16:23.037Z,9.88
2022-10-19T11:19:46.773Z,10.05
2022-10-19T11:22:40.825Z,10.25
2022-10-19T11:25:45.060Z,8.93
2022-10-19T11:28:49.534Z,9.38
2022-10-19T11:31:44.618Z,12.45
2022-10-19T11:34:26.238Z,11.80
2022-10-19T11:37:07.624Z,7.50
2022-10-19T11:39:41.976Z,6.93
2022-10-19T11:42:26.608Z,14.63
2022-10-19T11:46:00.548Z,10.05
2022-10-19T11:48:27.139Z,10.70
2022-10-19T11:51:17.383Z,7.68
2022-10-19T11:57:53.780Z,10.60
2022-10-19T12:00:38.226Z,12.73
2022-10-19T12:03:22.659Z,11.85
2022-10-19T12:06:06.866Z,11.93
2022-10-19T12:09:04.168Z,9.25
2022-10-19T12:11:36.737Z,9.25
2022-10-19T12:14:06.451Z,12.57
2022-10-19T12:16:40.383Z,13.38
2022-10-19T12:19:16.329Z,8.77
2022-10-19T12:21:44.133Z,19.02
2022-10-19T12:24:15.891Z,6.45
2022-10-19T12:26:44.844Z,7.57
2022-10-19T12:29:25.348Z,8.05
2022-10-19T12:31:53.892Z,11.27
2022-10-19T12:34:48.375Z,6.07
2022-10-19T12:37:23.796Z,9.13
2022-10-19T12:39:50.272Z,8.52
2022-10-19T12:42:35.337Z,13.32
2022-10-19T12:45:25.124Z,10.25
2022-10-19T12:48:12.530Z,10.43
2022-10-19T12:50:52.619Z,8.90
2022-10-19T12:53:31.273Z,11.77
2022-10-19T12:56:06.241Z,11.05
2022-10-19T12:58:46.576Z,11.20
2022-10-19T13:01:21.883Z,10.45
2022-10-19T13:03:53.407Z,22.67
2022-10-19T13:06:44.988Z,9.55
2022-10-19T13:09:27.378Z,9.27
2022-10-19T13:12:25.665Z,12.85
2022-10-19T13:14:58.861Z,13.02
2022-10-19T13:17:40.813Z,15.60
2022-10-19T13:20:13.718Z,15.73
2022-10-19T13:22:42.068Z,10.43
2022-10-19T13:25:23.810Z,9.07
2022-10-19T13:27:52.085Z,11.20
2022-10-19T13:30:40.827Z,16.45
2022-10-19T13:33:25.412Z,13.85
2022-10-19T13:36:08.263Z,8.70
2022-10-19T13:38:38.968Z,10.63
2022-10-19T13:41:14.950Z,13.77
2022-10-19T13:43:44.162Z,20.80
2022-10-19T13:46:13.934Z,16.13
2022-10-19T13:49:02.460Z,15.23
2022-10-19T13:51:36.112Z,17.25
2022-10-19T13:54:27.317Z,11.60
2022-10-19T13:57:09.117Z,13.93
2022-10-19T14:00:03.454Z,14.90
2022-10-19T14:02:51.048Z,12.18
2022-10-19T14:05:20.296Z,12.45
2022-10-19T14:07:55.607Z,14.02
2022-10-19T14:10:28.302Z,13.30
2022-10-19T14:13:03.563Z,21.75
2022-10-19T14:15:35.508Z,11.30
2022-10-19T14:18:03.832Z,8.38
2022-10-19T14:20:39.057Z,11.90
2022-10-19T14:23:34.372Z,24.55
2022-10-19T14:26:13.765Z,8.15
2022-10-19T14:28:42.985Z,11.38
2022-10-19T14:31:19.320Z,13.05
2022-10-19T14:33:48.216Z,16.50
2022-10-19T14:36:17.848Z,14.90
2022-10-19T14:38:49.836Z,13.43
2022-10-19T14:41:31.575Z,14.23
2022-10-19T14:44:02.765Z,16.85
2022-10-19T14:46:34.759Z,18.30
2022-10-19T14:49:04.550Z,10.88
2022-10-19T14:51:46.448Z,13.40
2022-10-19T14:54:37.984Z,18.63
2022-10-19T14:57:15.763Z,22.88
2022-10-19T14:59:54.286Z,9.00
2022-10-19T15:02:42.921Z,7.03
2022-10-19T15:05:22.048Z,26.85
2022-10-19T15:07:49.742Z,15.85
2022-10-19T15:10:40.981Z,13.40
2022-10-19T15:13:16.480Z,16.10
2022-10-19T15:15:43.235Z,15.02
2022-10-19T15:18:36.726Z,10.88
2022-10-19T15:21:23.497Z,12.85
2022-10-19T15:23:52.276Z,12.93
2022-10-19T15:26:27.463Z,16.60
2022-10-19T15:29:06.846Z,9.18
2022-10-19T15:31:33.494Z,9.77
2022-10-19T15:34:03.916Z,11.13
2022-10-19T15:36:33.660Z,12.00
2022-10-19T15:39:18.438Z,11.13
2022-10-19T15:41:52.489Z,17.25
2022-10-19T15:44:33.889Z,16.48
2022-10-19T15:47:24.076Z,19.33
2022-10-19T15:49:55.683Z,16.13
2022-10-19T15:52:23.421Z,11.05
2022-10-19T15:54:52.361Z,15.43
2022-10-19T15:57:31.363Z,8.70
2022-10-19T16:00:02.112Z,11.52
2022-10-19T16:02:30.841Z,21.77
2022-10-19T16:04:57.479Z,8.32
2022-10-19T16:07:35.902Z,11.68
2022-10-19T16:10:02.957Z,10.90
2022-10-19T16:12:32.770Z,18.95
2022-10-19T16:15:01.634Z,9.35
2022-10-19T16:17:28.268Z,8.25
2022-10-19T16:19:54.812Z,14.57
2022-10-19T16:22:21.358Z,7.68
2022-10-19T16:24:47.880Z,13.60
2022-10-19T16:27:16.497Z,14.63
2022-10-19T16:29:45.408Z,18.45
2022-10-19T16:32:12.018Z,10.95
2022-10-19T16:34:38.818Z,13.77
2022-10-19T16:37:07.088Z,10.68
2022-10-19T16:39:34.553Z,11.05
2022-10-19T16:42:02.042Z,17.55
2022-10-19T16:44:30.955Z,20.45
2022-10-19T16:47:01.095Z,26.38
2022-10-19T16:49:27.709Z,30.50
2022-10-19T16:51:57.256Z,22.55
2022-10-19T16:54:33.895Z,29.85
2022-10-19T16:57:08.746Z,31.77
2022-10-19T16:59:36.252Z,19.15
2022-10-19T17:02:02.764Z,18.55
2022-10-19T17:04:33.261Z,20.88
2022-10-19T17:07:03.323Z,23.23
2022-10-19T17:09:52.309Z,34.83
2022-10-19T17:12:19.296Z,38.45
2022-10-19T17:14:45.830Z,40.90
2022-10-19T17:17:12.893Z,39.03
2022-10-19T17:19:39.598Z,41.22
2022-10-19T17:22:06.269Z,57.17
2022-10-19T17:24:33.070Z,53.75
2022-10-19T17:27:08.287Z,49.17
2022-10-19T17:29:34.841Z,34.05
2022-10-19T17:32:01.388Z,28.17
2022-10-19T17:34:28.170Z,26.35
2022-10-19T17:36:54.965Z,23.17
2022-10-19T17:39:25.846Z,25.15
2022-10-19T17:42:01.435Z,20.73
2022-10-19T17:44:30.429Z,21.60
2022-10-19T17:46:57.096Z,14.20
2022-10-19T17:49:23.646Z,31.17
2022-10-19T17:51:52.601Z,13.43
2022-10-19T17:54:19.344Z,16.85
2022-10-19T17:56:46.166Z,17.83
2022-10-19T17:59:13.427Z,19.05
2022-10-19T18:01:40.052Z,13.65
2022-10-19T18:04:06.863Z,12.90
2022-10-19T18:06:36.253Z,15.77
2022-10-19T18:09:08.661Z,15.63
2022-10-19T18:11:45.047Z,19.52
2022-10-19T18:14:12.710Z,12.98
2022-10-19T18:16:46.559Z,12.13
2022-10-19T18:19:14.927Z,13.88
2022-10-19T18:21:43.827Z,22.00
2022-10-19T18:24:20.315Z,12.05
2022-10-19T18:26:48.988Z,13.15
2022-10-19T18:29:24.354Z,14.35
2022-10-19T18:31:53.843Z,12.35
2022-10-19T18:34:26.026Z,14.32
2022-10-19T18:36:53.026Z,10.35
2022-10-19T18:39:19.973Z,9.77
2022-10-19T18:41:48.264Z,19.02
2022-10-19T18:44:14.894Z,25.38
2022-10-19T18:46:41.656Z,21.63
2022-10-19T18:49:09.107Z,14.13
2022-10-19T18:51:36.578Z,14.73
2022-10-19T18:54:05.886Z,25.10
2022-10-19T18:56:41.579Z,14.80
2022-10-19T18:59:08.235Z,18.92
2022-10-19T19:01:38.741Z,12.77
2022-10-19T19:04:10.117Z,14.43
2022-10-19T19:06:39.978Z,16.42
2022-10-19T19:09:10.133Z,14.88
2022-10-19T19:11:41.257Z,8.50
2022-10-19T19:14:16.617Z,15.00
2022-10-19T19:16:44.735Z,11.77
2022-10-19T19:19:13.292Z,15.70
2022-10-19T19:21:43.911Z,15.20
2022-10-19T19:24:19.718Z,18.65
2022-10-19T19:26:50.553Z,15.38
2022-10-19T19:29:19.098Z,11.88
2022-10-19T19:31:47.418Z,21.90
2022-10-19T19:34:14.441Z,9.07
2022-10-19T19:36:47.120Z,15.02
2022-10-19T19:39:19.468Z,16.77
2022-10-19T19:41:47.037Z,18.05
2022-10-19T19:44:13.642Z,13.73
2022-10-19T19:46:40.258Z,19.45
2022-10-19T19:49:09.778Z,13.73
2022-10-19T19:51:39.621Z,11.75
2022-10-19T19:54:08.458Z,10.27
2022-10-19T19:56:40.043Z,12.48
2022-10-19T19:59:09.126Z,12.27
2022-10-19T20:01:38.648Z,14.80
2022-10-19T20:04:08.874Z,16.60
2022-10-19T20:06:40.399Z,11.43
2022-10-19T20:09:10.898Z,9.10
2022-10-19T20:11:42.688Z,15.65
2022-10-19T20:14:09.829Z,17.33
2022-10-19T20:16:40.709Z,15.50
2022-10-19T20:19:12.782Z,16.83
2022-10-19T20:21:42.848Z,10.07
2022-10-19T20:24:09.707Z,18.10
2022-10-19T20:26:39.496Z,23.02
2022-10-19T20:29:08.867Z,17.88
2022-10-19T20:31:39.615Z,17.13
2022-10-19T20:34:12.327Z,14.23
2022-10-19T20:36:41.708Z,17.90
2022-10-19T20:39:09.744Z,11.13
2022-10-19T20:41:38.501Z,17.63
2022-10-19T20:44:05.193Z,12.57
2022-10-19T20:46:32.066Z,16.08
2022-10-19T20:49:00.922Z,17.58
2022-10-19T20:51:44.808Z,10.23
2022-10-19T20:54:13.138Z,13.50
2022-10-19T20:56:50.791Z,17.73
2022-10-19T20:59:22.471Z,11.43
2022-10-19T21:01:51.132Z,8.15
2022-10-19T21:04:17.966Z,19.58
2022-10-19T21:06:47.471Z,16.25
2022-10-19T21:09:16.418Z,22.75
2022-10-19T21:11:44.736Z,14.07
2022-10-19T21:14:25.464Z,14.00
2022-10-19T21:16:56.716Z,17.90
2022-10-19T21:19:25.819Z,14.45
2022-10-19T21:21:57.906Z,11.43
2022-10-19T21:24:28.115Z,14.82
2022-10-19T21:26:54.923Z,17.05
2022-10-19T21:29:21.967Z,20.77
2022-10-19T21:31:51.840Z,16.60
2022-10-19T21:34:21.798Z,17.35
2022-10-19T21:36:48.820Z,12.77
2022-10-19T21:39:15.930Z,15.23
2022-10-19T21:41:44.185Z,24.08
2022-10-19T21:44:14.545Z,19.05
2022-10-19T21:46:46.836Z,13.45
2022-10-19T21:49:13.716Z,19.50
2022-10-19T21:51:50.812Z,14.93
2022-10-19T21:54:24.964Z,23.05
2022-10-19T21:56:53.197Z,17.85
2022-10-19T21:59:19.902Z,20.55
2022-10-19T22:01:46.575Z,22.63
2022-10-19T22:04:15.891Z,24.02
2022-10-19T22:06:43.285Z,27.65
2022-10-19T22:09:13.817Z,20.08
2022-10-19T22:11:43.337Z,24.35
2022-10-19T22:14:14.004Z,27.15
2022-10-19T22:16:43.707Z,17.67
2022-10-19T22:19:10.684Z,18.85
2022-10-19T22:24:13.495Z,12.00
2022-10-19T22:26:43.895Z,16.67
2022-10-19T22:29:10.895Z,14.25
2022-10-19T22:31:37.676Z,16.33
2022-10-19T22:34:06.209Z,22.40
2022-10-19T22:36:32.743Z,18.38
2022-10-19T22:38:59.459Z,24.77
2022-10-19T22:41:25.974Z,25.02
2022-10-19T22:43:52.484Z,26.88
2022-10-19T22:46:19.021Z,16.25
2022-10-19T22:48:45.577Z,19.55
2022-10-19T22:51:12.177Z,23.80
2022-10-19T22:53:38.736Z,20.77
2022-10-19T22:56:05.623Z,16.25
2022-10-19T22:58:32.245Z,14.30
2022-10-19T23:01:10.941Z,19.45
2022-10-19T23:03:40.241Z,15.35
2022-10-19T23:06:08.415Z,18.88
2022-10-19T23:08:35.226Z,21.65
2022-10-19T23:11:01.811Z,22.10
2022-10-19T23:13:28.650Z,19.83
2022-10-19T23:15:55.243Z,16.08
2022-10-19T23:18:21.810Z,18.13
2022-10-19T23:21:00.104Z,24.27
2022-10-19T23:23:27.674Z,14.93
2022-10-19T23:26:18.805Z,23.95
2022-10-19T23:28:47.708Z,19.63
2022-10-19T23:31:18.427Z,17.08
2022-10-19T23:33:45.784Z,19.90
2022-10-19T23:36:18.107Z,16.85
2022-10-19T23:38:48.561Z,15.95
2022-10-19T23:41:18.809Z,23.48
2022-10-19T23:43:45.811Z,11.38
2022-10-19T23:46:12.733Z,15.45
2022-10-19T23:48:39.752Z,18.70
2022-10-19T23:51:11.842Z,14.93
2022-10-19T23:53:41.469Z,14.18
2022-10-19T23:56:11.974Z,22.23
2022-10-19T23:58:38.523Z,33.00
